createdAt,value
2018-02-13T00:01:23.058Z,77.99
2018-02-13T00:02:10.654Z,78.59
2018-02-13T00:02:52.192Z,78.22
2018-02-13T00:03:34.625Z,78.27
2018-02-13T00:04:15.644Z,77.61
2018-02-13T00:04:57.037Z,77.23
2018-02-13T00:05:37.531Z,77.7
2018-02-13T00:06:17.901Z,78.13
2018-02-13T00:06:59.072Z,78.88
2018-02-13T00:07:38.938Z,78.08
2018-02-13T00:08:19.930Z,78.88
2018-02-13T00:09:00.936Z,78.41
2018-02-13T00:09:43.091Z,78.03
2018-02-13T00:10:23.779Z,78.13
2018-02-13T00:11:04.401Z,77.84
2018-02-13T00:11:45.352Z,77.18
2018-02-13T00:12:26.910Z,77.56
2018-02-13T00:13:06.976Z,76.51
2018-02-13T00:13:50.220Z,76.1
2018-02-13T00:14:31.403Z,76.29
2018-02-13T00:18:22.683Z,77.14
2018-02-13T00:19:03.061Z,77.51
2018-02-13T00:19:43.466Z,78.37
2018-02-13T00:20:23.863Z,78.56
2018-02-13T00:21:04.197Z,77.61
2018-02-13T00:21:44.597Z,78.27
2018-02-13T00:22:24.976Z,77.7
2018-02-13T00:24:43.960Z,78.56
2018-02-13T00:25:23.961Z,79.13
2018-02-13T00:26:04.413Z,79.88
2018-02-13T00:26:44.792Z,80.17
2018-02-13T00:27:25.142Z,80.36
2018-02-13T00:28:05.553Z,79.69
2018-02-13T00:28:45.958Z,79.03
2018-02-13T00:29:26.378Z,78.18
2018-02-13T00:30:06.737Z,78.65
2018-02-13T00:30:47.104Z,78.18
2018-02-13T00:31:27.488Z,78.46
2018-02-13T00:32:07.874Z,78.27
2018-02-13T00:32:48.261Z,78.75
2018-02-13T00:33:28.633Z,78.08
2018-02-13T00:34:09.034Z,78.56
2018-02-13T00:34:49.419Z,77.99
2018-02-13T00:35:29.795Z,77.8
2018-02-13T00:36:10.208Z,78.37
2018-02-13T00:36:50.605Z,78.75
2018-02-13T00:37:31.024Z,78.75
2018-02-13T00:38:11.376Z,79.13
2018-02-13T00:38:51.760Z,79.88
2018-02-13T00:39:32.161Z,79.69
2018-02-13T00:40:12.553Z,80.55
2018-02-13T00:40:52.929Z,80.26
2018-02-13T00:41:33.329Z,80.64
2018-02-13T00:42:13.722Z,80.07
2018-02-13T00:42:54.108Z,79.5
2018-02-13T00:43:34.500Z,79.13
2018-02-13T00:44:14.919Z,79.6
2018-02-13T00:44:55.296Z,79.03
2018-02-13T00:45:35.670Z,79.32
2018-02-13T00:46:16.087Z,79.03
2018-02-13T00:46:56.465Z,79.03
2018-02-13T00:47:36.929Z,79.13
2018-02-13T00:48:17.297Z,79.5
2018-02-13T00:48:57.685Z,80.36
2018-02-13T00:49:38.050Z,79.79
2018-02-13T00:50:18.452Z,78.99
2018-02-13T00:50:58.871Z,79.13
2018-02-13T00:51:39.251Z,79.18
2018-02-13T00:52:19.651Z,79.66
2018-02-13T00:53:00.032Z,79.66
2018-02-13T00:53:40.403Z,80.51
2018-02-13T00:54:20.791Z,80.41
2018-02-13T00:56:08.105Z,79.75
2018-02-13T00:56:48.483Z,79.56
2018-02-13T00:57:28.875Z,79.47
2018-02-13T00:59:26.593Z,80.41
2018-02-13T01:00:07.303Z,80.88
2018-02-13T01:00:47.738Z,80.98
2018-02-13T01:01:28.114Z,80.22
2018-02-13T01:02:08.491Z,80.13
2018-02-13T01:02:48.898Z,79.94
2018-02-13T01:03:29.292Z,79.37
2018-02-13T01:04:09.679Z,79.47
2018-02-13T01:04:50.084Z,79.28
2018-02-13T01:05:30.481Z,79.47
2018-02-13T01:06:10.909Z,80.32
2018-02-13T01:06:51.239Z,80.32
2018-02-13T01:07:31.640Z,80.32
2018-02-13T01:08:12.026Z,80.32
2018-02-13T01:08:52.417Z,81.45
2018-02-13T01:09:32.811Z,80.04
2018-02-13T01:10:13.225Z,80.04
2018-02-13T01:10:53.646Z,79.66
2018-02-13T01:11:34.049Z,80.04
2018-02-13T01:13:46.861Z,80.41
2018-02-13T01:14:26.968Z,80.88
2018-02-13T01:15:07.351Z,80.79
2018-02-13T01:15:47.748Z,81.55
2018-02-13T01:16:28.162Z,81.64
2018-02-13T01:17:08.548Z,81.83
2018-02-13T01:17:48.956Z,82.12
2018-02-13T01:18:29.367Z,82.5
2018-02-13T01:19:09.742Z,82.4
2018-02-13T01:19:50.147Z,81.93
2018-02-13T01:20:30.532Z,81.26
2018-02-13T01:21:11.005Z,81.36
2018-02-13T01:21:51.347Z,81.26
2018-02-13T01:22:31.780Z,81.36
2018-02-13T01:23:12.141Z,81.93
2018-02-13T01:23:52.567Z,81.64
2018-02-13T01:24:32.933Z,81.36
2018-02-13T01:25:13.331Z,81.45
2018-02-13T01:25:53.703Z,82.02
2018-02-13T01:26:34.069Z,81.36
2018-02-13T01:27:14.467Z,81.55
2018-02-13T01:27:54.915Z,81.83
2018-02-13T01:28:35.299Z,81.83
2018-02-13T01:29:15.663Z,81.93
2018-02-13T01:29:56.044Z,81.64
2018-02-13T01:30:36.439Z,80.13
2018-02-13T01:31:16.835Z,79.66
2018-02-13T01:31:57.255Z,80.41
2018-02-13T01:32:37.623Z,80.98
2018-02-13T01:33:18.024Z,80.32
2018-02-13T01:33:58.443Z,79.85
2018-02-13T01:34:38.815Z,79.56
2018-02-13T01:35:19.209Z,79.66
2018-02-13T01:35:59.608Z,80.51
2018-02-13T01:36:40.030Z,80.51
2018-02-13T01:37:20.382Z,80.04
2018-02-13T01:38:00.796Z,80.98
2018-02-13T01:38:41.170Z,80.79
2018-02-13T01:39:21.647Z,80.04
2018-02-13T01:40:01.972Z,79.6
2018-02-13T01:40:42.386Z,79.28
2018-02-13T01:41:22.801Z,78.52
2018-02-13T01:42:03.172Z,78.61
2018-02-13T01:42:43.528Z,78.05
2018-02-13T01:43:23.918Z,78.71
2018-02-13T01:44:04.321Z,78.99
2018-02-13T01:44:44.730Z,79.09
2018-02-13T01:45:25.145Z,78.99
2018-02-13T01:46:05.513Z,78.99
2018-02-13T01:46:45.933Z,78.8
2018-02-13T01:47:26.352Z,80.04
2018-02-13T01:48:06.751Z,80.41
2018-02-13T01:48:47.172Z,80.79
2018-02-13T01:49:27.514Z,80.74
2018-02-13T01:51:41.786Z,79.13
2018-02-13T01:52:22.035Z,78.65
2018-02-13T01:53:02.462Z,78.75
2018-02-13T01:53:42.895Z,78.56
2018-02-13T01:54:23.263Z,79.03
2018-02-13T01:55:03.635Z,78.85
2018-02-13T01:55:44.090Z,78.18
2018-02-13T01:56:24.421Z,78.23
2018-02-13T01:57:04.867Z,78.61
2018-02-13T01:57:45.213Z,78.52
2018-02-13T01:58:25.657Z,78.71
2018-02-13T01:59:05.987Z,78.52
2018-02-13T01:59:46.432Z,79.09
2018-02-13T02:00:26.794Z,78.52
2018-02-13T02:01:07.152Z,78.99
2018-02-13T02:01:47.545Z,79.85
2018-02-13T02:02:27.984Z,79.66
2018-02-13T02:04:40.607Z,80.79
2018-02-13T02:05:20.952Z,81.59
2018-02-13T02:06:01.371Z,81.59
2018-02-13T02:06:41.759Z,80.55
2018-02-13T02:07:22.177Z,79.88
2018-02-13T02:08:02.534Z,79.13
2018-02-13T02:08:42.926Z,78.75
2018-02-13T02:09:23.325Z,78.56
2018-02-13T02:10:03.733Z,78.56
2018-02-13T02:10:44.062Z,78.65
2018-02-13T02:11:24.453Z,77.89
2018-02-13T02:12:04.884Z,77.99
2018-02-13T02:12:45.253Z,78.94
2018-02-13T02:13:25.628Z,78.75
2018-02-13T02:14:06.017Z,78.75
2018-02-13T02:14:46.385Z,78.08
2018-02-13T02:15:26.791Z,78.23
2018-02-13T02:16:07.178Z,78.33
2018-02-13T02:16:47.560Z,78.99
2018-02-13T02:17:27.967Z,78.52
2018-02-13T02:18:08.369Z,78.52
2018-02-13T02:18:48.789Z,78.71
2018-02-13T02:19:29.172Z,79.37
2018-02-13T02:20:09.606Z,79.85
2018-02-13T02:20:50.007Z,79.85
2018-02-13T02:21:30.328Z,79.56
2018-02-13T02:22:10.728Z,79.28
2018-02-13T02:22:51.083Z,78.99
2018-02-13T02:23:31.485Z,79.09
2018-02-13T02:24:11.847Z,79.66
2018-02-13T02:24:52.231Z,79.18
2018-02-13T02:25:32.676Z,78.71
2018-02-13T02:26:13.039Z,79.18
2018-02-13T02:26:53.413Z,79.66
2018-02-13T02:27:33.820Z,79.66
2018-02-13T02:28:14.205Z,80.41
2018-02-13T02:28:54.611Z,80.51
2018-02-13T02:29:35.004Z,80.41
2018-02-13T02:30:15.417Z,79.75
2018-02-13T02:30:55.891Z,79.28
2018-02-13T02:31:36.187Z,80.41
2018-02-13T02:32:16.567Z,80.04
2018-02-13T02:32:56.955Z,80.6
2018-02-13T02:33:37.372Z,80.98
2018-02-13T02:34:17.774Z,81.07
2018-02-13T02:34:58.139Z,80.6
2018-02-13T02:35:38.535Z,80.04
2018-02-13T02:36:18.961Z,79.94
2018-02-13T02:36:59.358Z,80.22
2018-02-13T02:37:39.754Z,79.75
2018-02-13T02:39:27.333Z,79.37
2018-02-13T02:40:08.141Z,79.66
2018-02-13T02:40:48.576Z,80.32
2018-02-13T02:41:28.954Z,80.13
2018-02-13T02:42:09.340Z,80.41
2018-02-13T02:42:49.717Z,79.94
2018-02-13T02:43:30.087Z,79.47
2018-02-13T02:44:10.493Z,79.37
2018-02-13T02:44:50.874Z,79.85
2018-02-13T02:45:31.254Z,80.22
2018-02-13T02:46:11.652Z,79.47
2018-02-13T02:46:52.072Z,78.99
2018-02-13T02:47:32.496Z,79.09
2018-02-13T02:48:12.819Z,79.37
2018-02-13T02:48:53.213Z,79.85
2018-02-13T02:49:33.621Z,80.04
2018-02-13T02:50:14.012Z,80.69
2018-02-13T02:50:54.391Z,80.41
2018-02-13T02:51:34.802Z,80.69
2018-02-13T02:52:15.147Z,80.69
2018-02-13T02:52:55.560Z,81.26
2018-02-13T02:53:35.951Z,81.36
2018-02-13T02:54:16.340Z,81.36
2018-02-13T02:54:56.736Z,81.55
2018-02-13T02:55:37.182Z,81.93
2018-02-13T02:56:17.601Z,81.93
2018-02-13T02:56:57.960Z,81.64
2018-02-13T02:57:38.374Z,81.64
2018-02-13T02:58:18.794Z,81.64
2018-02-13T02:58:59.175Z,81.45
2018-02-13T02:59:39.563Z,81.36
2018-02-13T03:00:19.965Z,81.55
2018-02-13T03:01:00.418Z,81.45
2018-02-13T03:01:40.823Z,81.45
2018-02-13T03:02:21.185Z,81.26
2018-02-13T03:03:01.593Z,81.26
2018-02-13T03:03:41.988Z,80.98
2018-02-13T03:04:22.361Z,80.98
2018-02-13T03:05:02.771Z,80.93
2018-02-13T03:05:43.182Z,81.64
2018-02-13T03:06:23.597Z,79.66
2018-02-13T03:07:03.946Z,79.66
2018-02-13T03:07:44.361Z,78.99
2018-02-13T03:08:24.734Z,78.9
2018-02-13T03:09:05.120Z,78.75
2018-02-13T03:09:45.500Z,79.66
2018-02-13T03:10:25.883Z,79.28
2018-02-13T03:11:06.283Z,79.94
2018-02-13T03:11:46.684Z,79.75
2018-02-13T03:12:27.099Z,79.79
2018-02-13T03:13:07.450Z,78.94
2018-02-13T03:13:47.891Z,79.09
2018-02-13T03:14:28.326Z,79.37
2018-02-13T03:15:08.670Z,79.6
2018-02-13T03:15:49.063Z,79.6
2018-02-13T03:16:29.451Z,78.65
2018-02-13T03:17:09.840Z,78.71
2018-02-13T03:18:57.103Z,78.71
2018-02-13T03:19:38.103Z,78.52
2018-02-13T03:20:18.505Z,78.61
2018-02-13T03:20:58.904Z,78.71
2018-02-13T03:21:39.360Z,79.94
2018-02-13T03:23:51.826Z,79.75
2018-02-13T03:24:32.105Z,80.6
2018-02-13T03:25:12.518Z,79.37
2018-02-13T03:25:52.904Z,78.71
2018-02-13T03:26:33.298Z,79.09
2018-02-13T03:27:13.693Z,79.09
2018-02-13T03:27:54.097Z,79.66
2018-02-13T03:28:34.475Z,80.41
2018-02-13T03:29:14.898Z,80.13
2018-02-13T03:29:55.282Z,80.32
2018-02-13T03:30:35.692Z,80.13
2018-02-13T03:31:16.113Z,79.47
2018-02-13T03:31:56.500Z,80.22
2018-02-13T03:32:36.902Z,79.94
2018-02-13T03:33:17.300Z,79.75
2018-02-13T03:33:57.748Z,80.41
2018-02-13T03:34:38.124Z,80.04
2018-02-13T03:35:18.529Z,79.94
2018-02-13T03:35:58.883Z,80.6
2018-02-13T03:37:56.922Z,80.6
2018-02-13T03:38:37.371Z,79.94
2018-02-13T03:39:17.748Z,80.13
2018-02-13T03:41:06.536Z,80.79
2018-02-13T03:41:49.920Z,80.98
2018-02-13T03:42:30.318Z,80.88
2018-02-13T03:43:10.725Z,80.79
2018-02-13T03:43:51.127Z,81.45
2018-02-13T03:44:31.561Z,82.02
2018-02-13T03:45:11.882Z,81.93
2018-02-13T03:45:52.244Z,81.17
2018-02-13T03:46:32.680Z,81.55
2018-02-13T03:47:13.082Z,81.07
2018-02-13T03:47:53.488Z,81.64
2018-02-13T03:48:33.878Z,80.88
2018-02-13T03:49:14.309Z,80.98
2018-02-13T03:49:54.693Z,81.07
2018-02-13T03:50:35.109Z,81.07
2018-02-13T03:51:15.508Z,80.51
2018-02-13T03:51:55.935Z,80.69
2018-02-13T03:53:54.490Z,81.45
2018-02-13T03:54:34.882Z,81.64
2018-02-13T03:55:15.329Z,81.45
2018-02-13T03:55:55.696Z,81.64
2018-02-13T03:56:36.095Z,81.26
2018-02-13T03:57:16.464Z,80.69
2018-02-13T03:57:56.846Z,80.6
2018-02-13T03:58:37.227Z,80.04
2018-02-13T03:59:17.587Z,80.41
2018-02-13T03:59:57.995Z,80.41
2018-02-13T04:00:38.460Z,80.32
2018-02-13T04:01:18.756Z,80.98
2018-02-13T04:01:59.172Z,81.07
2018-02-13T04:02:39.573Z,81.74
2018-02-13T04:03:19.968Z,82.59
2018-02-13T04:43:15.731Z,84.44
2018-02-13T04:43:56.312Z,84.53
2018-02-13T04:44:36.690Z,84.34
2018-02-13T04:45:17.079Z,84.81
2018-02-13T04:45:57.494Z,84.72
2018-02-13T04:46:37.887Z,84.96
2018-02-13T04:47:18.325Z,85
2018-02-13T04:47:58.737Z,84.96
2018-02-13T04:48:39.072Z,86.04
2018-02-13T04:49:19.509Z,86.61
2018-02-13T04:49:59.875Z,85.81
2018-02-13T04:50:40.312Z,85.66
2018-02-13T04:51:20.680Z,86.1
2018-02-13T04:52:01.069Z,85.43
2018-02-13T04:53:53.538Z,85.28
2018-02-13T04:54:35.667Z,86.71
2018-02-13T04:55:16.036Z,86.61
2018-02-13T04:55:56.445Z,86.23
2018-02-13T04:56:36.893Z,85.76
2018-02-13T04:57:17.299Z,84.72
2018-02-13T04:57:57.693Z,85
2018-02-13T04:58:38.121Z,85
2018-02-13T04:59:18.532Z,85
2018-02-13T04:59:58.979Z,85.28
2018-02-13T05:00:39.334Z,85.47
2018-02-13T05:01:19.728Z,85.28
2018-02-13T05:02:00.149Z,85.1
2018-02-13T05:02:40.518Z,85.66
2018-02-13T05:03:20.936Z,85.66
2018-02-13T05:04:01.344Z,85.76
2018-02-13T05:04:41.735Z,85.57
2018-02-13T05:05:22.160Z,84.91
2018-02-13T05:06:02.577Z,85.19
2018-02-13T05:06:42.995Z,84.25
2018-02-13T05:07:23.350Z,84.25
2018-02-13T05:08:03.754Z,85.19
2018-02-13T05:08:44.142Z,84.72
2018-02-13T05:09:24.583Z,84.25
2018-02-13T05:10:04.928Z,83.02
2018-02-13T05:10:45.347Z,83.68
2018-02-13T05:11:25.781Z,83.3
2018-02-13T05:12:06.166Z,82.83
2018-02-13T05:12:46.527Z,82.97
2018-02-13T05:13:26.911Z,83.15
2018-02-13T05:14:07.325Z,83.34
2018-02-13T05:14:47.745Z,82.87
2018-02-13T05:15:28.397Z,82.87
2018-02-13T05:16:08.780Z,83.06
2018-02-13T05:16:49.273Z,82.12
2018-02-13T05:17:29.696Z,81.64
2018-02-13T05:18:10.098Z,82.4
2018-02-13T05:18:50.509Z,82.59
2018-02-13T05:19:30.895Z,82.02
2018-02-13T05:20:11.348Z,81.93
2018-02-13T05:22:29.394Z,81.55
2018-02-13T05:23:09.710Z,82.02
2018-02-13T05:25:22.466Z,80.88
2018-02-13T05:26:02.972Z,81.64
2018-02-13T05:28:00.497Z,80.98
2018-02-13T05:28:40.978Z,80.98
2018-02-13T05:29:21.333Z,81.83
2018-02-13T05:31:31.398Z,81.74
2018-02-13T05:32:19.692Z,81.55
2018-02-13T05:33:08.350Z,81.26
2018-02-13T05:33:57.428Z,81.26
2018-02-13T05:34:45.926Z,81.93
2018-02-13T05:35:35.106Z,81.64
2018-02-13T05:37:23.475Z,80.22
2018-02-13T05:38:04.130Z,80.22
2018-02-13T05:38:44.546Z,79.56
2018-02-13T05:39:24.981Z,79.56
2018-02-13T05:40:05.350Z,80.55
2018-02-13T05:40:45.782Z,79.66
2018-02-13T05:42:58.474Z,78.61
2018-02-13T05:43:38.721Z,78.52
2018-02-13T05:45:51.238Z,77.58
2018-02-13T05:46:31.617Z,78.52
2018-02-13T05:47:11.997Z,79.47
2018-02-13T05:47:52.410Z,79.94
2018-02-13T05:48:32.802Z,81.55
2018-02-13T05:49:13.185Z,81.17
2018-02-13T05:49:53.609Z,79.85
2018-02-13T05:50:34.014Z,79.28
2018-02-13T05:51:14.413Z,79.85
2018-02-13T05:51:54.831Z,80.13
2018-02-13T05:52:35.248Z,78.9
2018-02-13T05:53:15.633Z,78.99
2018-02-13T05:53:56.050Z,78.52
2018-02-13T05:54:36.432Z,78.52
2018-02-13T05:55:16.815Z,78.71
2018-02-13T05:55:57.249Z,79.75
2018-02-13T05:56:37.637Z,79.56
2018-02-13T05:58:31.121Z,78.9
2018-02-13T05:59:10.984Z,79.56
2018-02-13T05:59:51.342Z,80.32
2018-02-13T06:00:31.733Z,80.22
2018-02-13T06:01:12.134Z,81.07
2018-02-13T06:01:52.560Z,80.6
2018-02-13T06:02:32.924Z,80.51
2018-02-13T06:03:13.385Z,80.51
2018-02-13T06:03:53.720Z,80.04
2018-02-13T06:04:34.121Z,80.79
2018-02-13T06:05:14.575Z,81.74
2018-02-13T06:05:54.967Z,80.79
2018-02-13T06:06:35.374Z,80.69
2018-02-13T06:07:15.755Z,81.45
2018-02-13T06:07:56.171Z,81.45
2018-02-13T06:08:36.570Z,81.64
2018-02-13T06:09:16.963Z,81.83
2018-02-13T06:09:57.407Z,81.83
2018-02-13T06:10:37.914Z,81.36
2018-02-13T06:11:18.350Z,80.6
2018-02-13T06:11:58.743Z,80.04
2018-02-13T06:12:39.197Z,80.04
2018-02-13T06:13:19.585Z,81.74
2018-02-13T06:14:00.012Z,81.36
2018-02-13T06:14:40.412Z,81.07
2018-02-13T06:15:20.771Z,80.88
2018-02-13T06:16:01.165Z,80.04
2018-02-13T06:16:46.593Z,79.94
2018-02-13T06:19:00.978Z,80.41
2018-02-13T06:19:40.396Z,80.41
2018-02-13T06:20:20.789Z,81.17
2018-02-13T06:21:01.205Z,82.06
2018-02-13T06:21:41.604Z,81.45
2018-02-13T06:22:21.993Z,80.41
2018-02-13T06:23:02.408Z,80.36
2018-02-13T06:23:42.872Z,80.32
2018-02-13T06:24:23.231Z,80.04
2018-02-13T06:25:03.669Z,79.09
2018-02-13T06:25:44.066Z,79.66
2018-02-13T06:26:24.471Z,80.41
2018-02-13T06:27:04.838Z,80.04
2018-02-13T06:27:45.310Z,80.51
2018-02-13T06:28:25.687Z,80.04
2018-02-13T06:30:13.258Z,80.64
2018-02-13T06:30:53.637Z,79.66
2018-02-13T06:31:34.056Z,79.41
2018-02-13T06:32:14.430Z,79.09
2018-02-13T06:32:54.894Z,78.52
2018-02-13T06:33:35.415Z,78.99
2018-02-13T06:34:15.857Z,78.75
2018-02-13T06:34:56.316Z,79.66
2018-02-13T06:35:36.765Z,79.18
2018-02-13T06:36:17.221Z,79.56
2018-02-13T06:36:57.725Z,79.85
2018-02-13T06:37:38.215Z,80.17
2018-02-13T06:38:18.692Z,80.74
2018-02-13T06:38:59.099Z,79.32
2018-02-13T06:39:39.481Z,78.75
2018-02-13T06:40:19.952Z,78.52
2018-02-13T06:41:00.484Z,79.32
2018-02-13T06:41:41.009Z,79.13
2018-02-13T06:42:22.287Z,78.42
2018-02-13T06:43:02.344Z,79.03
2018-02-13T06:43:42.876Z,79.5
2018-02-13T06:44:23.330Z,79.69
2018-02-13T06:45:03.767Z,79.79
2018-02-13T06:45:44.220Z,79.22
2018-02-13T06:46:24.721Z,78.46
2018-02-13T06:47:06.226Z,78.46
2018-02-13T06:47:47.566Z,79.41
2018-02-13T06:48:28.015Z,79.13
2018-02-13T06:49:08.412Z,79.22
2018-02-13T06:49:48.864Z,78.08
2018-02-13T06:50:29.303Z,78.18
2018-02-13T06:51:09.708Z,78.42
2018-02-13T06:51:50.115Z,79.5
2018-02-13T06:52:30.535Z,79.18
2018-02-13T06:53:10.922Z,77.95
2018-02-13T06:53:51.259Z,78.05
2018-02-13T06:54:31.697Z,78.05
2018-02-13T06:55:12.063Z,78.52
2018-02-13T06:55:52.563Z,78.61
2018-02-13T06:56:35.544Z,78.71
2018-02-13T06:57:16.497Z,78.52
2018-02-13T06:57:57.427Z,78.9
2018-02-13T06:58:37.856Z,78.52
2018-02-13T06:59:18.264Z,78.52
2018-02-13T06:59:58.629Z,78.52
2018-02-13T07:00:39.030Z,78.99
2018-02-13T07:01:20.947Z,79.09
2018-02-13T07:03:38.564Z,80.51
2018-02-13T07:04:18.934Z,81.07
2018-02-13T07:04:59.364Z,80.32
2018-02-13T07:05:39.889Z,79.66
2018-02-13T07:06:20.212Z,78.99
2018-02-13T07:07:00.626Z,78.99
2018-02-13T07:07:41.051Z,78.9
2018-02-13T07:08:21.553Z,78.52
2018-02-13T07:09:01.862Z,78.05
2018-02-13T07:09:42.255Z,77.95
2018-02-13T07:10:22.661Z,78.33
2018-02-13T07:11:03.637Z,78.52
2018-02-13T07:11:44.033Z,78.75
2018-02-13T07:12:24.419Z,78.75
2018-02-13T07:13:04.884Z,77.61
2018-02-13T07:13:45.232Z,77.51
2018-02-13T07:14:25.684Z,77.14
2018-02-13T07:15:06.123Z,77.23
2018-02-13T07:15:46.553Z,76.76
2018-02-13T07:16:27.217Z,77.14
2018-02-13T07:18:46.024Z,77.23
2018-02-13T07:19:25.399Z,77.14
2018-02-13T07:20:06.311Z,76.95
2018-02-13T07:20:46.821Z,76.48
2018-02-13T07:21:27.294Z,75.62
2018-02-13T07:22:10.594Z,75.53
2018-02-13T07:22:50.280Z,74.87
2018-02-13T07:23:30.652Z,74.87
2018-02-13T07:24:11.054Z,74.58
2018-02-13T07:24:51.449Z,74.4
2018-02-13T07:26:39.046Z,74.58
2018-02-13T07:27:19.129Z,75.15
2018-02-13T07:27:59.476Z,75.62
2018-02-13T07:28:40.008Z,76.06
2018-02-13T07:29:20.404Z,76.25
2018-02-13T07:30:00.799Z,77.39
2018-02-13T07:30:41.244Z,77.29
2018-02-13T07:31:21.596Z,78.05
2018-02-13T07:32:02.041Z,78.33
2018-02-13T07:32:42.368Z,78.14
2018-02-13T07:33:22.734Z,78.71
2018-02-13T07:34:03.187Z,78.71
2018-02-13T07:36:16.067Z,78.75
2018-02-13T07:36:56.277Z,78.37
2018-02-13T07:37:36.722Z,77.61
2018-02-13T07:38:17.187Z,77.61
2018-02-13T07:38:57.754Z,77.14
2018-02-13T07:39:38.125Z,76.38
2018-02-13T07:40:18.508Z,75.85
2018-02-13T07:40:58.933Z,75.09
2018-02-13T07:41:39.281Z,74.43
2018-02-13T07:42:19.701Z,74.43
2018-02-13T07:43:00.112Z,74.62
2018-02-13T07:43:40.519Z,74.15
2018-02-13T07:44:20.889Z,73.9
2018-02-13T07:45:01.310Z,73.14
2018-02-13T07:45:41.745Z,72.86
2018-02-13T07:46:22.139Z,71.34
2018-02-13T07:47:02.550Z,70.58
2018-02-13T07:47:42.824Z,70.81
2018-02-13T07:48:23.244Z,70.34
2018-02-13T07:49:05.002Z,70.72
2018-02-13T07:49:44.373Z,69.1
2018-02-13T07:50:24.804Z,68.54
2018-02-13T07:51:05.190Z,68.48
2018-02-13T07:51:45.696Z,67.71
2018-02-13T07:52:26.129Z,66.48
2018-02-13T07:53:06.820Z,65.25
2018-02-13T07:53:47.680Z,65.25
2018-02-13T07:54:28.033Z,64.87
2018-02-13T07:55:08.444Z,64.2
2018-02-13T07:55:48.848Z,64.43
2018-02-13T07:56:29.313Z,64.05
2018-02-13T07:57:09.772Z,64.43
2018-02-13T07:57:50.177Z,64.43
2018-02-13T07:58:30.608Z,63.95
2018-02-13T07:59:11.116Z,62.82
2018-02-13T07:59:51.430Z,62.72
2018-02-13T08:00:31.846Z,62.24
2018-02-13T08:01:12.243Z,62.15
2018-02-13T08:01:52.643Z,62.66
2018-02-13T08:02:33.081Z,62.56
2018-02-13T08:03:13.443Z,62.37
2018-02-13T08:03:53.881Z,61.99
2018-02-13T08:04:34.372Z,62.18
2018-02-13T08:05:15.488Z,62.46
2018-02-13T08:05:55.749Z,62.37
2018-02-13T08:06:36.174Z,61.9
2018-02-13T08:07:16.562Z,61.8
2018-02-13T08:07:57.096Z,60.85
2018-02-13T08:08:37.718Z,61.8
2018-02-13T08:09:18.070Z,62.08
2018-02-13T08:09:58.486Z,61.61
2018-02-13T08:10:38.924Z,61.99
2018-02-13T08:11:19.291Z,62.08
2018-02-13T08:11:59.685Z,62.34
2018-02-13T08:14:19.665Z,60.92
2018-02-13T08:15:02.366Z,61.39
2018-02-13T08:15:42.709Z,62.05
2018-02-13T08:16:23.146Z,62.37
2018-02-13T08:17:03.631Z,61.99
2018-02-13T08:17:44.031Z,61.3
2018-02-13T08:18:24.448Z,61.2
2018-02-13T08:19:04.889Z,61.14
2018-02-13T08:19:45.279Z,61.9
2018-02-13T08:20:25.756Z,61.58
2018-02-13T08:21:06.123Z,62.46
2018-02-13T08:21:46.488Z,61.58
2018-02-13T08:22:26.894Z,61.68
2018-02-13T08:23:07.541Z,62.85
2018-02-13T08:23:47.780Z,62.27
2018-02-13T08:24:28.181Z,61.9
2018-02-13T08:25:08.550Z,61.42
2018-02-13T08:25:49.029Z,61.52
2018-02-13T08:26:29.455Z,61.99
2018-02-13T08:27:09.855Z,62.46
2018-02-13T08:27:50.358Z,61.9
2018-02-13T08:28:30.725Z,61.42
2018-02-13T08:29:11.112Z,60.57
2018-02-13T08:29:51.559Z,60.28
2018-02-13T08:30:32.019Z,60.19
2018-02-13T08:31:12.568Z,59.91
2018-02-13T08:31:53.151Z,59.91
2018-02-13T08:32:33.831Z,60.1
2018-02-13T08:33:14.377Z,59.71
2018-02-13T08:33:55.162Z,60.1
2018-02-13T08:34:35.776Z,60
2018-02-13T08:35:16.154Z,60
2018-02-13T08:39:25.601Z,59.74
2018-02-13T08:40:05.681Z,59.33
2018-02-13T08:40:46.115Z,59.52
2018-02-13T08:41:26.531Z,59.91
2018-02-13T08:42:07.073Z,59.81
2018-02-13T08:42:47.496Z,60.5
2018-02-13T08:43:28.006Z,59.08
2018-02-13T08:44:08.781Z,59.05
2018-02-13T08:44:50.293Z,58.76
2018-02-13T08:45:30.504Z,59.91
2018-02-13T08:46:11.358Z,59.62
2018-02-13T08:46:51.757Z,59.62
2018-02-13T08:47:32.173Z,60.13
2018-02-13T08:48:12.579Z,59.93
2018-02-13T08:48:52.968Z,60.03
2018-02-13T08:49:34.449Z,58.89
2018-02-13T08:50:14.923Z,58.8
2018-02-13T08:50:56.010Z,59.17
2018-02-13T08:51:35.895Z,59.05
2018-02-13T08:52:16.294Z,60.1
2018-02-13T08:52:56.683Z,60
2018-02-13T08:53:37.097Z,60.57
2018-02-13T08:54:17.649Z,60.85
2018-02-13T08:54:58.083Z,60.95
2018-02-13T08:55:38.519Z,61.87
2018-02-13T08:56:18.926Z,62.24
2018-02-13T08:56:59.422Z,62.72
2018-02-13T08:57:39.983Z,63.39
2018-02-13T08:58:21.037Z,63.29
2018-02-13T08:59:01.635Z,64.05
2018-02-13T08:59:42.803Z,63.51
2018-02-13T09:00:23.046Z,62.75
2018-02-13T09:01:03.688Z,62.66
2018-02-13T09:01:45.038Z,62.56
2018-02-13T09:02:25.480Z,62.56
2018-02-13T09:03:06.327Z,62.46
2018-02-13T09:03:47.216Z,62.56
2018-02-13T09:04:28.214Z,61.99
2018-02-13T09:05:08.680Z,62.08
2018-02-13T09:05:49.012Z,61.52
2018-02-13T09:06:29.486Z,62.18
2018-02-13T09:07:09.872Z,61.52
2018-02-13T09:07:50.289Z,61.33
2018-02-13T09:08:30.662Z,61.52
2018-02-13T09:09:11.119Z,61.33
2018-02-13T09:09:51.528Z,62.08
2018-02-13T09:10:32.016Z,60.76
2018-02-13T09:11:12.479Z,61.42
2018-02-13T09:11:52.859Z,61.99
2018-02-13T09:12:33.325Z,61.71
2018-02-13T09:13:13.711Z,62.08
2018-02-13T09:13:54.536Z,62.18
2018-02-13T09:14:34.613Z,62.27
2018-02-13T09:15:14.988Z,62.27
2018-02-13T09:15:55.469Z,61.8
2018-02-13T09:16:35.873Z,61.71
2018-02-13T09:17:16.330Z,61.14
2018-02-13T09:17:56.761Z,61.04
2018-02-13T09:18:37.192Z,61.14
2018-02-13T09:19:17.595Z,61.71
2018-02-13T09:19:57.986Z,61.74
2018-02-13T09:20:38.400Z,61.83
2018-02-13T09:22:56.195Z,60.25
2018-02-13T09:23:38.620Z,59.96
2018-02-13T09:24:19.070Z,58.92
2018-02-13T09:24:59.404Z,58.54
2018-02-13T09:25:39.794Z,58.92
2018-02-13T09:26:20.265Z,59.49
2018-02-13T09:27:00.728Z,59.01
2018-02-13T09:27:41.361Z,59.01
2018-02-13T09:28:22.097Z,58.16
2018-02-13T09:29:02.441Z,58.44
2018-02-13T09:29:42.944Z,58.06
2018-02-13T09:30:23.597Z,57.33
2018-02-13T09:31:04.296Z,57.02
2018-02-13T09:31:48.407Z,58.06
2018-02-13T09:32:28.832Z,58.16
2018-02-13T09:34:46.697Z,58.06
2018-02-13T09:35:29.066Z,57.43
2018-02-13T09:36:10.284Z,57.3
2018-02-13T09:36:50.574Z,57.68
2018-02-13T09:37:31.468Z,57.71
2018-02-13T09:38:11.879Z,57.33
2018-02-13T09:38:52.273Z,57.4
2018-02-13T09:40:45.142Z,57.97
2018-02-13T09:41:25.938Z,57.71
2018-02-13T09:42:05.952Z,57.4
2018-02-13T09:42:46.334Z,57.97
2018-02-13T09:43:26.896Z,58.25
2018-02-13T09:44:07.664Z,58.16
2018-02-13T09:44:48.053Z,58.25
2018-02-13T09:45:28.592Z,58.92
2018-02-13T09:46:09.069Z,58.83
2018-02-13T09:46:50.087Z,58.44
2018-02-13T09:47:30.508Z,58.44
2018-02-13T09:48:10.947Z,58.25
2018-02-13T09:48:51.381Z,58.25
2018-02-13T09:49:31.783Z,58.92
2018-02-13T09:50:12.272Z,58.06
2018-02-13T09:50:52.677Z,57.5
2018-02-13T09:51:33.094Z,56.63
2018-02-13T09:54:50.432Z,57.87
2018-02-13T09:55:30.746Z,57.68
2018-02-13T09:56:11.143Z,58.44
2018-02-13T09:56:51.564Z,58.06
2018-02-13T09:57:31.986Z,57.78
2018-02-13T09:58:12.389Z,57.68
2018-02-13T09:58:52.822Z,57.5
2018-02-13T09:59:33.268Z,57.3
2018-02-13T10:00:13.605Z,57.84
2018-02-13T10:00:54.019Z,58.16
2018-02-13T10:01:36.545Z,57.94
2018-02-13T10:02:16.708Z,58.32
2018-02-13T10:02:57.842Z,59.17
2018-02-13T10:03:40.590Z,59.17
2018-02-13T10:04:21.007Z,59.36
2018-02-13T10:05:01.638Z,59.46
2018-02-13T10:43:37.246Z,56.57
2018-02-13T10:44:18.862Z,57.04
2018-02-13T10:45:00.495Z,56.57
2018-02-13T10:45:41.649Z,56
2018-02-13T10:46:22.644Z,56.29
2018-02-13T10:47:02.605Z,56.54
2018-02-13T10:47:45.130Z,56.29
2018-02-13T10:48:25.896Z,56.29
2018-02-13T10:49:06.012Z,55.62
2018-02-13T10:49:46.507Z,55.59
2018-02-13T10:50:27.010Z,55.78
2018-02-13T10:51:08.485Z,55.59
2018-02-13T10:51:50.266Z,55.88
2018-02-13T10:52:30.641Z,55.3
2018-02-13T10:53:11.118Z,55.11
2018-02-13T10:53:51.892Z,55.88
2018-02-13T10:54:32.707Z,56.16
2018-02-13T10:55:14.239Z,56.26